sensor_id;sensor_type;location;lat;lon;timestamp;P1;durP1;ratioP1;P2;durP2;ratioP2
25780;SDS011;13626;48.128;11.628;2023-04-03T00:02:05;10.27;;;6.65;;
25780;SDS011;13626;48.128;11.628;2023-04-03T00:04:32;11.00;;;6.63;;
25780;SDS011;13626;48.128;11.628;2023-04-03T00:06:59;9.15;;;6.47;;
25780;SDS011;13626;48.128;11.628;2023-04-03T00:09:26;10.68;;;6.47;;
25780;SDS011;13626;48.128;11.628;2023-04-03T00:11:54;10.07;;;7.10;;
25780;SDS011;13626;48.128;11.628;2023-04-03T00:14:21;10.57;;;6.72;;
25780;SDS011;13626;48.128;11.628;2023-04-03T00:16:48;10.25;;;6.70;;
25780;SDS011;13626;48.128;11.628;2023-04-03T00:19:15;10.57;;;7.20;;
25780;SDS011;13626;48.128;11.628;2023-04-03T00:21:42;9.88;;;6.85;;
25780;SDS011;13626;48.128;11.628;2023-04-03T00:24:10;9.73;;;6.20;;
25780;SDS011;13626;48.128;11.628;2023-04-03T00:26:37;10.93;;;6.72;;
25780;SDS011;13626;48.128;11.628;2023-04-03T00:29:04;9.10;;;5.85;;
25780;SDS011;13626;48.128;11.628;2023-04-03T00:31:31;8.02;;;6.30;;
25780;SDS011;13626;48.128;11.628;2023-04-03T00:33:59;12.15;;;6.63;;
25780;SDS011;13626;48.128;11.628;2023-04-03T00:36:26;9.70;;;6.68;;
25780;SDS011;13626;48.128;11.628;2023-04-03T00:38:53;9.32;;;6.78;;
25780;SDS011;13626;48.128;11.628;2023-04-03T00:41:20;11.65;;;6.82;;
25780;SDS011;13626;48.128;11.628;2023-04-03T00:43:47;9.43;;;6.00;;
25780;SDS011;13626;48.128;11.628;2023-04-03T00:46:15;9.75;;;6.38;;
25780;SDS011;13626;48.128;11.628;2023-04-03T00:48:43;9.55;;;6.40;;
25780;SDS011;13626;48.128;11.628;2023-04-03T00:51:16;9.75;;;6.60;;
25780;SDS011;13626;48.128;11.628;2023-04-03T00:53:49;8.63;;;6.05;;
25780;SDS011;13626;48.128;11.628;2023-04-03T00:56:18;9.13;;;6.20;;
25780;SDS011;13626;48.128;11.628;2023-04-03T00:58:51;10.48;;;6.82;;
25780;SDS011;13626;48.128;11.628;2023-04-03T01:01:22;11.00;;;6.80;;
25780;SDS011;13626;48.128;11.628;2023-04-03T01:03:50;9.25;;;6.13;;
25780;SDS011;13626;48.128;11.628;2023-04-03T01:06:20;9.48;;;6.40;;
25780;SDS011;13626;48.128;11.628;2023-04-03T01:08:48;8.73;;;6.50;;
25780;SDS011;13626;48.128;11.628;2023-04-03T01:11:16;11.68;;;6.50;;
25780;SDS011;13626;48.128;11.628;2023-04-03T01:13:43;11.77;;;6.68;;
25780;SDS011;13626;48.128;11.628;2023-04-03T01:16:10;10.70;;;6.70;;
25780;SDS011;13626;48.128;11.628;2023-04-03T01:18:38;8.68;;;6.13;;
25780;SDS011;13626;48.128;11.628;2023-04-03T01:23:52;9.65;;;6.40;;
25780;SDS011;13626;48.128;11.628;2023-04-03T01:26:22;7.43;;;5.57;;
25780;SDS011;13626;48.128;11.628;2023-04-03T01:28:49;8.85;;;6.18;;
25780;SDS011;13626;48.128;11.628;2023-04-03T01:31:24;8.90;;;5.32;;
25780;SDS011;13626;48.128;11.628;2023-04-03T01:33:53;8.07;;;5.82;;
25780;SDS011;13626;48.128;11.628;2023-04-03T01:36:23;8.65;;;6.22;;
25780;SDS011;13626;48.128;11.628;2023-04-03T01:38:51;8.30;;;6.20;;
25780;SDS011;13626;48.128;11.628;2023-04-03T01:41:18;9.98;;;6.30;;
25780;SDS011;13626;48.128;11.628;2023-04-03T01:43:47;9.35;;;5.60;;
25780;SDS011;13626;48.128;11.628;2023-04-03T01:46:18;9.73;;;6.00;;
25780;SDS011;13626;48.128;11.628;2023-04-03T01:48:45;10.88;;;6.10;;
25780;SDS011;13626;48.128;11.628;2023-04-03T01:51:13;8.55;;;5.93;;
25780;SDS011;13626;48.128;11.628;2023-04-03T01:53:40;9.63;;;6.40;;
25780;SDS011;13626;48.128;11.628;2023-04-03T01:56:07;8.70;;;5.97;;
25780;SDS011;13626;48.128;11.628;2023-04-03T01:58:34;9.80;;;6.20;;
25780;SDS011;13626;48.128;11.628;2023-04-03T02:01:02;8.27;;;5.88;;
25780;SDS011;13626;48.128;11.628;2023-04-03T02:03:29;10.07;;;5.90;;
25780;SDS011;13626;48.128;11.628;2023-04-03T02:05:57;9.23;;;6.13;;
25780;SDS011;13626;48.128;11.628;2023-04-03T02:08:24;9.45;;;5.78;;
25780;SDS011;13626;48.128;11.628;2023-04-03T02:10:51;7.82;;;6.30;;
25780;SDS011;13626;48.128;11.628;2023-04-03T02:13:18;7.95;;;5.65;;
25780;SDS011;13626;48.128;11.628;2023-04-03T02:15:46;9.45;;;6.30;;
25780;SDS011;13626;48.128;11.628;2023-04-03T02:18:14;8.48;;;5.88;;
25780;SDS011;13626;48.128;11.628;2023-04-03T02:20:41;8.52;;;6.43;;
25780;SDS011;13626;48.128;11.628;2023-04-03T02:23:08;8.38;;;5.80;;
25780;SDS011;13626;48.128;11.628;2023-04-03T02:25:36;7.78;;;5.43;;
25780;SDS011;13626;48.128;11.628;2023-04-03T02:28:04;8.27;;;5.85;;
25780;SDS011;13626;48.128;11.628;2023-04-03T02:30:31;8.05;;;5.63;;
25780;SDS011;13626;48.128;11.628;2023-04-03T02:32:59;7.72;;;5.25;;
25780;SDS011;13626;48.128;11.628;2023-04-03T02:35:26;8.77;;;5.63;;
25780;SDS011;13626;48.128;11.628;2023-04-03T02:37:53;9.05;;;5.95;;
25780;SDS011;13626;48.128;11.628;2023-04-03T02:40:20;6.63;;;4.75;;
25780;SDS011;13626;48.128;11.628;2023-04-03T02:42:48;7.68;;;5.03;;
25780;SDS011;13626;48.128;11.628;2023-04-03T02:45:15;8.43;;;5.35;;
25780;SDS011;13626;48.128;11.628;2023-04-03T02:47:43;6.38;;;4.68;;
25780;SDS011;13626;48.128;11.628;2023-04-03T02:50:10;6.88;;;4.45;;
25780;SDS011;13626;48.128;11.628;2023-04-03T02:52:37;6.55;;;4.72;;
25780;SDS011;13626;48.128;11.628;2023-04-03T02:55:04;10.43;;;4.78;;
25780;SDS011;13626;48.128;11.628;2023-04-03T02:57:32;7.40;;;4.65;;
25780;SDS011;13626;48.128;11.628;2023-04-03T02:59:59;5.80;;;4.18;;
25780;SDS011;13626;48.128;11.628;2023-04-03T03:02:27;7.15;;;4.32;;
25780;SDS011;13626;48.128;11.628;2023-04-03T03:04:54;8.35;;;4.05;;
25780;SDS011;13626;48.128;11.628;2023-04-03T03:07:21;7.68;;;4.60;;
25780;SDS011;13626;48.128;11.628;2023-04-03T03:09:49;6.00;;;4.13;;
25780;SDS011;13626;48.128;11.628;2023-04-03T03:12:16;6.65;;;4.03;;
25780;SDS011;13626;48.128;11.628;2023-04-03T03:14:48;5.93;;;3.67;;
25780;SDS011;13626;48.128;11.628;2023-04-03T03:17:15;6.75;;;3.80;;
25780;SDS011;13626;48.128;11.628;2023-04-03T03:19:42;5.32;;;4.00;;
25780;SDS011;13626;48.128;11.628;2023-04-03T03:22:11;4.78;;;3.78;;
25780;SDS011;13626;48.128;11.628;2023-04-03T03:24:39;5.68;;;3.90;;
25780;SDS011;13626;48.128;11.628;2023-04-03T03:27:06;5.60;;;3.80;;
25780;SDS011;13626;48.128;11.628;2023-04-03T03:29:33;5.13;;;4.03;;
25780;SDS011;13626;48.128;11.628;2023-04-03T03:32:00;5.43;;;3.47;;
25780;SDS011;13626;48.128;11.628;2023-04-03T03:34:27;5.10;;;3.70;;
25780;SDS011;13626;48.128;11.628;2023-04-03T03:36:55;4.90;;;3.60;;
25780;SDS011;13626;48.128;11.628;2023-04-03T03:39:22;6.28;;;3.88;;
25780;SDS011;13626;48.128;11.628;2023-04-03T03:41:49;4.00;;;3.22;;
25780;SDS011;13626;48.128;11.628;2023-04-03T03:44:16;4.57;;;3.30;;
25780;SDS011;13626;48.128;11.628;2023-04-03T03:46:43;6.28;;;3.28;;
25780;SDS011;13626;48.128;11.628;2023-04-03T03:49:11;5.32;;;3.60;;
25780;SDS011;13626;48.128;11.628;2023-04-03T03:51:38;5.80;;;3.63;;
25780;SDS011;13626;48.128;11.628;2023-04-03T03:54:06;5.32;;;3.47;;
25780;SDS011;13626;48.128;11.628;2023-04-03T03:56:34;5.03;;;3.30;;
25780;SDS011;13626;48.128;11.628;2023-04-03T03:59:01;4.90;;;3.38;;
25780;SDS011;13626;48.128;11.628;2023-04-03T04:01:28;4.35;;;3.33;;
25780;SDS011;13626;48.128;11.628;2023-04-03T04:03:56;5.18;;;3.33;;
25780;SDS011;13626;48.128;11.628;2023-04-03T04:06:24;3.95;;;3.22;;
25780;SDS011;13626;48.128;11.628;2023-04-03T04:08:52;4.63;;;3.58;;
25780;SDS011;13626;48.128;11.628;2023-04-03T04:11:19;5.38;;;3.58;;
25780;SDS011;13626;48.128;11.628;2023-04-03T04:13:48;4.70;;;3.30;;
25780;SDS011;13626;48.128;11.628;2023-04-03T04:16:15;5.07;;;3.63;;
25780;SDS011;13626;48.128;11.628;2023-04-03T04:18:42;6.68;;;3.55;;
25780;SDS011;13626;48.128;11.628;2023-04-03T04:21:09;5.15;;;3.83;;
25780;SDS011;13626;48.128;11.628;2023-04-03T04:23:36;4.50;;;3.75;;
25780;SDS011;13626;48.128;11.628;2023-04-03T04:26:04;4.68;;;3.58;;
25780;SDS011;13626;48.128;11.628;2023-04-03T04:28:31;7.68;;;3.85;;
25780;SDS011;13626;48.128;11.628;2023-04-03T04:30:58;4.22;;;3.42;;
25780;SDS011;13626;48.128;11.628;2023-04-03T04:33:25;5.28;;;3.33;;
25780;SDS011;13626;48.128;11.628;2023-04-03T04:35:53;6.95;;;3.72;;
25780;SDS011;13626;48.128;11.628;2023-04-03T04:38:20;4.35;;;3.60;;
25780;SDS011;13626;48.128;11.628;2023-04-03T04:40:48;5.80;;;3.70;;
25780;SDS011;13626;48.128;11.628;2023-04-03T04:43:15;4.25;;;3.35;;
25780;SDS011;13626;48.128;11.628;2023-04-03T04:45:43;4.75;;;3.70;;
25780;SDS011;13626;48.128;11.628;2023-04-03T04:48:10;5.60;;;3.70;;
25780;SDS011;13626;48.128;11.628;2023-04-03T04:50:37;5.68;;;3.60;;
25780;SDS011;13626;48.128;11.628;2023-04-03T04:53:05;6.35;;;3.85;;
25780;SDS011;13626;48.128;11.628;2023-04-03T04:55:32;6.05;;;3.65;;
25780;SDS011;13626;48.128;11.628;2023-04-03T04:57:59;5.72;;;3.50;;
25780;SDS011;13626;48.128;11.628;2023-04-03T05:00:27;5.85;;;3.67;;
25780;SDS011;13626;48.128;11.628;2023-04-03T05:02:54;6.25;;;3.75;;
25780;SDS011;13626;48.128;11.628;2023-04-03T05:05:21;8.20;;;4.03;;
25780;SDS011;13626;48.128;11.628;2023-04-03T05:07:49;4.65;;;3.55;;
25780;SDS011;13626;48.128;11.628;2023-04-03T05:10:16;3.88;;;3.33;;
25780;SDS011;13626;48.128;11.628;2023-04-03T05:12:43;5.60;;;3.35;;
25780;SDS011;13626;48.128;11.628;2023-04-03T05:15:10;5.82;;;3.63;;
25780;SDS011;13626;48.128;11.628;2023-04-03T05:17:38;6.20;;;3.63;;
25780;SDS011;13626;48.128;11.628;2023-04-03T05:20:05;5.55;;;3.63;;
25780;SDS011;13626;48.128;11.628;2023-04-03T05:22:32;4.05;;;3.20;;
25780;SDS011;13626;48.128;11.628;2023-04-03T05:25:00;4.72;;;3.25;;
25780;SDS011;13626;48.128;11.628;2023-04-03T05:27:27;5.35;;;3.53;;
25780;SDS011;13626;48.128;11.628;2023-04-03T05:29:54;5.85;;;3.50;;
25780;SDS011;13626;48.128;11.628;2023-04-03T05:32:22;3.58;;;2.97;;
25780;SDS011;13626;48.128;11.628;2023-04-03T05:34:50;4.00;;;2.90;;
25780;SDS011;13626;48.128;11.628;2023-04-03T05:37:17;5.18;;;3.30;;
25780;SDS011;13626;48.128;11.628;2023-04-03T05:39:45;4.38;;;3.40;;
25780;SDS011;13626;48.128;11.628;2023-04-03T05:42:12;5.40;;;3.38;;
25780;SDS011;13626;48.128;11.628;2023-04-03T05:44:39;3.75;;;3.20;;
25780;SDS011;13626;48.128;11.628;2023-04-03T05:47:07;4.03;;;3.25;;
25780;SDS011;13626;48.128;11.628;2023-04-03T05:49:34;8.18;;;4.13;;
25780;SDS011;13626;48.128;11.628;2023-04-03T05:52:01;6.05;;;3.55;;
25780;SDS011;13626;48.128;11.628;2023-04-03T05:54:29;4.68;;;3.67;;
25780;SDS011;13626;48.128;11.628;2023-04-03T05:56:56;4.00;;;3.03;;
25780;SDS011;13626;48.128;11.628;2023-04-03T05:59:24;6.13;;;3.90;;
25780;SDS011;13626;48.128;11.628;2023-04-03T06:01:51;6.35;;;3.45;;
25780;SDS011;13626;48.128;11.628;2023-04-03T06:04:18;6.40;;;3.85;;
25780;SDS011;13626;48.128;11.628;2023-04-03T06:09:15;6.07;;;3.60;;
25780;SDS011;13626;48.128;11.628;2023-04-03T06:11:43;7.28;;;3.60;;
25780;SDS011;13626;48.128;11.628;2023-04-03T06:14:10;4.15;;;3.40;;
25780;SDS011;13626;48.128;11.628;2023-04-03T06:16:37;5.75;;;3.75;;
25780;SDS011;13626;48.128;11.628;2023-04-03T06:19:06;6.22;;;3.35;;
25780;SDS011;13626;48.128;11.628;2023-04-03T06:21:33;5.47;;;3.58;;
25780;SDS011;13626;48.128;11.628;2023-04-03T06:24:04;7.05;;;4.13;;
25780;SDS011;13626;48.128;11.628;2023-04-03T06:26:32;5.45;;;3.40;;
25780;SDS011;13626;48.128;11.628;2023-04-03T06:29:00;3.85;;;3.28;;
25780;SDS011;13626;48.128;11.628;2023-04-03T06:31:28;8.15;;;3.78;;
25780;SDS011;13626;48.128;11.628;2023-04-03T06:33:55;5.40;;;3.95;;
25780;SDS011;13626;48.128;11.628;2023-04-03T06:36:23;4.88;;;3.75;;
25780;SDS011;13626;48.128;11.628;2023-04-03T06:38:50;5.05;;;3.55;;
25780;SDS011;13626;48.128;11.628;2023-04-03T06:41:17;6.13;;;4.20;;
25780;SDS011;13626;48.128;11.628;2023-04-03T06:43:45;4.97;;;3.50;;
25780;SDS011;13626;48.128;11.628;2023-04-03T06:46:13;7.22;;;3.75;;
25780;SDS011;13626;48.128;11.628;2023-04-03T06:48:41;6.15;;;3.70;;
25780;SDS011;13626;48.128;11.628;2023-04-03T06:51:13;5.18;;;3.20;;
25780;SDS011;13626;48.128;11.628;2023-04-03T06:53:41;8.60;;;3.38;;
25780;SDS011;13626;48.128;11.628;2023-04-03T06:56:10;5.10;;;4.07;;
25780;SDS011;13626;48.128;11.628;2023-04-03T06:58:37;4.38;;;3.47;;
25780;SDS011;13626;48.128;11.628;2023-04-03T07:01:05;6.15;;;3.88;;
25780;SDS011;13626;48.128;11.628;2023-04-03T07:03:33;6.35;;;3.78;;
25780;SDS011;13626;48.128;11.628;2023-04-03T07:06:01;4.75;;;3.50;;
25780;SDS011;13626;48.128;11.628;2023-04-03T07:08:29;5.28;;;3.40;;
25780;SDS011;13626;48.128;11.628;2023-04-03T07:10:56;6.65;;;3.67;;
25780;SDS011;13626;48.128;11.628;2023-04-03T07:13:23;4.68;;;3.40;;
25780;SDS011;13626;48.128;11.628;2023-04-03T07:15:50;6.93;;;4.15;;
25780;SDS011;13626;48.128;11.628;2023-04-03T07:18:18;6.18;;;3.90;;
25780;SDS011;13626;48.128;11.628;2023-04-03T07:20:45;4.25;;;3.45;;
25780;SDS011;13626;48.128;11.628;2023-04-03T07:23:13;4.18;;;3.25;;
25780;SDS011;13626;48.128;11.628;2023-04-03T07:25:44;6.93;;;3.33;;
25780;SDS011;13626;48.128;11.628;2023-04-03T07:28:12;6.85;;;3.67;;
25780;SDS011;13626;48.128;11.628;2023-04-03T07:30:44;5.05;;;3.33;;
25780;SDS011;13626;48.128;11.628;2023-04-03T07:33:12;5.57;;;3.70;;
25780;SDS011;13626;48.128;11.628;2023-04-03T07:35:40;6.78;;;3.80;;
25780;SDS011;13626;48.128;11.628;2023-04-03T07:38:08;6.10;;;4.20;;
25780;SDS011;13626;48.128;11.628;2023-04-03T07:40:36;7.70;;;4.05;;
25780;SDS011;13626;48.128;11.628;2023-04-03T07:43:04;7.28;;;3.78;;
25780;SDS011;13626;48.128;11.628;2023-04-03T07:45:32;5.40;;;3.80;;
25780;SDS011;13626;48.128;11.628;2023-04-03T07:48:01;6.38;;;4.25;;
25780;SDS011;13626;48.128;11.628;2023-04-03T07:50:28;5.80;;;3.83;;
25780;SDS011;13626;48.128;11.628;2023-04-03T07:52:57;5.13;;;4.13;;
25780;SDS011;13626;48.128;11.628;2023-04-03T07:55:24;8.85;;;4.50;;
25780;SDS011;13626;48.128;11.628;2023-04-03T07:57:52;8.98;;;4.97;;
25780;SDS011;13626;48.128;11.628;2023-04-03T08:00:19;9.57;;;4.72;;
25780;SDS011;13626;48.128;11.628;2023-04-03T08:02:46;9.68;;;4.70;;
25780;SDS011;13626;48.128;11.628;2023-04-03T08:05:18;8.13;;;4.78;;
25780;SDS011;13626;48.128;11.628;2023-04-03T08:07:46;7.38;;;4.63;;
25780;SDS011;13626;48.128;11.628;2023-04-03T08:10:14;9.85;;;5.35;;
25780;SDS011;13626;48.128;11.628;2023-04-03T08:12:41;6.70;;;4.97;;
25780;SDS011;13626;48.128;11.628;2023-04-03T08:15:09;8.82;;;5.00;;
25780;SDS011;13626;48.128;11.628;2023-04-03T08:17:36;9.00;;;4.68;;
25780;SDS011;13626;48.128;11.628;2023-04-03T08:20:04;8.80;;;4.72;;
25780;SDS011;13626;48.128;11.628;2023-04-03T08:22:33;6.93;;;4.80;;
25780;SDS011;13626;48.128;11.628;2023-04-03T08:25:00;5.65;;;4.45;;
25780;SDS011;13626;48.128;11.628;2023-04-03T08:27:28;6.88;;;4.55;;
25780;SDS011;13626;48.128;11.628;2023-04-03T08:29:55;7.90;;;4.72;;
25780;SDS011;13626;48.128;11.628;2023-04-03T08:32:23;7.88;;;4.85;;
25780;SDS011;13626;48.128;11.628;2023-04-03T08:34:50;7.13;;;4.40;;
25780;SDS011;13626;48.128;11.628;2023-04-03T08:37:17;8.52;;;4.85;;
25780;SDS011;13626;48.128;11.628;2023-04-03T08:39:45;7.82;;;5.53;;
25780;SDS011;13626;48.128;11.628;2023-04-03T08:44:55;6.82;;;5.07;;
25780;SDS011;13626;48.128;11.628;2023-04-03T08:47:35;7.88;;;4.80;;
25780;SDS011;13626;48.128;11.628;2023-04-03T08:50:05;6.85;;;4.28;;
25780;SDS011;13626;48.128;11.628;2023-04-03T08:52:50;7.75;;;4.35;;
25780;SDS011;13626;48.128;11.628;2023-04-03T09:01:06;6.50;;;4.65;;
25780;SDS011;13626;48.128;11.628;2023-04-03T09:03:40;5.68;;;4.32;;
25780;SDS011;13626;48.128;11.628;2023-04-03T09:06:12;5.35;;;4.30;;
25780;SDS011;13626;48.128;11.628;2023-04-03T09:14:02;8.40;;;4.10;;
25780;SDS011;13626;48.128;11.628;2023-04-03T09:19:42;5.88;;;3.88;;
25780;SDS011;13626;48.128;11.628;2023-04-03T09:21:49;5.78;;;3.80;;
25780;SDS011;13626;48.128;11.628;2023-04-03T09:24:16;6.13;;;4.22;;
25780;SDS011;13626;48.128;11.628;2023-04-03T09:29:14;6.70;;;3.95;;
25780;SDS011;13626;48.128;11.628;2023-04-03T09:31:43;6.35;;;3.78;;
25780;SDS011;13626;48.128;11.628;2023-04-03T09:36:45;9.13;;;4.57;;
25780;SDS011;13626;48.128;11.628;2023-04-03T09:39:21;6.22;;;4.00;;
25780;SDS011;13626;48.128;11.628;2023-04-03T09:44:23;5.03;;;4.00;;
25780;SDS011;13626;48.128;11.628;2023-04-03T09:46:50;4.75;;;3.17;;
25780;SDS011;13626;48.128;11.628;2023-04-03T09:49:17;3.72;;;3.00;;
25780;SDS011;13626;48.128;11.628;2023-04-03T09:51:45;6.95;;;4.05;;
25780;SDS011;13626;48.128;11.628;2023-04-03T09:56:53;4.10;;;2.70;;
25780;SDS011;13626;48.128;11.628;2023-04-03T09:59:22;7.50;;;3.65;;
25780;SDS011;13626;48.128;11.628;2023-04-03T10:04:48;4.75;;;3.90;;
25780;SDS011;13626;48.128;11.628;2023-04-03T10:07:35;5.43;;;3.90;;
25780;SDS011;13626;48.128;11.628;2023-04-03T10:10:15;4.35;;;3.45;;
25780;SDS011;13626;48.128;11.628;2023-04-03T10:12:43;4.50;;;3.60;;
25780;SDS011;13626;48.128;11.628;2023-04-03T10:15:15;7.97;;;3.97;;
25780;SDS011;13626;48.128;11.628;2023-04-03T10:28:06;6.20;;;4.22;;
25780;SDS011;13626;48.128;11.628;2023-04-03T10:30:47;5.60;;;4.28;;
25780;SDS011;13626;48.128;11.628;2023-04-03T10:33:25;5.07;;;4.20;;
25780;SDS011;13626;48.128;11.628;2023-04-03T10:51:30;6.70;;;3.65;;
25780;SDS011;13626;48.128;11.628;2023-04-03T10:56:47;7.28;;;4.35;;
25780;SDS011;13626;48.128;11.628;2023-04-03T10:59:31;4.97;;;3.50;;
25780;SDS011;13626;48.128;11.628;2023-04-03T11:02:04;5.07;;;3.42;;
25780;SDS011;13626;48.128;11.628;2023-04-03T11:04:34;7.80;;;4.17;;
25780;SDS011;13626;48.128;11.628;2023-04-03T11:07:08;8.32;;;3.60;;
25780;SDS011;13626;48.128;11.628;2023-04-03T11:09:38;5.70;;;3.80;;
25780;SDS011;13626;48.128;11.628;2023-04-03T11:12:14;3.63;;;3.20;;
25780;SDS011;13626;48.128;11.628;2023-04-03T11:14:44;4.72;;;2.80;;
25780;SDS011;13626;48.128;11.628;2023-04-03T11:22:18;6.40;;;2.78;;
25780;SDS011;13626;48.128;11.628;2023-04-03T11:24:57;2.73;;;2.30;;
25780;SDS011;13626;48.128;11.628;2023-04-03T11:27:26;4.78;;;2.67;;
25780;SDS011;13626;48.128;11.628;2023-04-03T11:29:56;5.28;;;3.10;;
25780;SDS011;13626;48.128;11.628;2023-04-03T11:34:52;4.97;;;2.92;;
25780;SDS011;13626;48.128;11.628;2023-04-03T11:42:46;4.32;;;2.85;;
25780;SDS011;13626;48.128;11.628;2023-04-03T11:45:16;4.35;;;2.42;;
25780;SDS011;13626;48.128;11.628;2023-04-03T11:47:49;3.85;;;2.38;;
25780;SDS011;13626;48.128;11.628;2023-04-03T12:08:26;3.20;;;1.88;;
25780;SDS011;13626;48.128;11.628;2023-04-03T12:16:08;2.85;;;1.80;;
25780;SDS011;13626;48.128;11.628;2023-04-03T12:21:17;4.80;;;2.03;;
25780;SDS011;13626;48.128;11.628;2023-04-03T12:34:40;3.22;;;2.15;;
25780;SDS011;13626;48.128;11.628;2023-04-03T12:39:52;4.88;;;1.95;;
25780;SDS011;13626;48.128;11.628;2023-04-03T12:47:48;2.15;;;1.63;;
25780;SDS011;13626;48.128;11.628;2023-04-03T12:50:27;2.55;;;1.80;;
25780;SDS011;13626;48.128;11.628;2023-04-03T12:52:58;3.40;;;1.80;;
25780;SDS011;13626;48.128;11.628;2023-04-03T12:55:26;1.55;;;1.42;;
25780;SDS011;13626;48.128;11.628;2023-04-03T12:57:53;3.70;;;1.60;;
25780;SDS011;13626;48.128;11.628;2023-04-03T13:02:48;3.00;;;1.90;;
25780;SDS011;13626;48.128;11.628;2023-04-03T13:05:17;4.38;;;1.83;;
25780;SDS011;13626;48.128;11.628;2023-04-03T13:07:44;2.95;;;2.00;;
25780;SDS011;13626;48.128;11.628;2023-04-03T13:10:16;5.82;;;2.10;;
25780;SDS011;13626;48.128;11.628;2023-04-03T13:12:47;2.65;;;1.70;;
25780;SDS011;13626;48.128;11.628;2023-04-03T13:15:25;2.40;;;1.80;;
25780;SDS011;13626;48.128;11.628;2023-04-03T13:17:53;3.78;;;1.60;;
25780;SDS011;13626;48.128;11.628;2023-04-03T13:22:59;2.72;;;1.80;;
25780;SDS011;13626;48.128;11.628;2023-04-03T13:25:27;2.08;;;1.52;;
25780;SDS011;13626;48.128;11.628;2023-04-03T13:27:55;3.58;;;1.80;;
25780;SDS011;13626;48.128;11.628;2023-04-03T13:30:38;4.13;;;1.80;;
25780;SDS011;13626;48.128;11.628;2023-04-03T13:33:19;2.72;;;1.70;;
25780;SDS011;13626;48.128;11.628;2023-04-03T13:35:46;4.57;;;1.70;;
25780;SDS011;13626;48.128;11.628;2023-04-03T13:41:04;3.42;;;1.60;;
25780;SDS011;13626;48.128;11.628;2023-04-03T13:43:35;2.65;;;1.80;;
25780;SDS011;13626;48.128;11.628;2023-04-03T13:48:41;1.70;;;1.13;;
25780;SDS011;13626;48.128;11.628;2023-04-03T13:53:42;2.70;;;1.70;;
25780;SDS011;13626;48.128;11.628;2023-04-03T13:56:16;2.15;;;1.55;;
25780;SDS011;13626;48.128;11.628;2023-04-03T13:58:55;5.32;;;1.70;;
25780;SDS011;13626;48.128;11.628;2023-04-03T14:01:24;3.97;;;1.70;;
25780;SDS011;13626;48.128;11.628;2023-04-03T14:03:59;2.38;;;1.60;;
25780;SDS011;13626;48.128;11.628;2023-04-03T14:06:27;3.05;;;1.80;;
25780;SDS011;13626;48.128;11.628;2023-04-03T14:08:55;2.17;;;1.38;;
25780;SDS011;13626;48.128;11.628;2023-04-03T14:11:24;2.40;;;1.50;;
25780;SDS011;13626;48.128;11.628;2023-04-03T14:13:53;4.55;;;1.90;;
25780;SDS011;13626;48.128;11.628;2023-04-03T14:16:23;2.85;;;1.70;;
25780;SDS011;13626;48.128;11.628;2023-04-03T14:22:31;2.13;;;1.60;;
25780;SDS011;13626;48.128;11.628;2023-04-03T14:24:58;5.20;;;1.80;;
25780;SDS011;13626;48.128;11.628;2023-04-03T14:27:30;3.17;;;1.50;;
25780;SDS011;13626;48.128;11.628;2023-04-03T14:30:00;3.72;;;2.03;;
25780;SDS011;13626;48.128;11.628;2023-04-03T14:32:29;4.50;;;1.58;;
25780;SDS011;13626;48.128;11.628;2023-04-03T14:34:57;2.88;;;1.48;;
25780;SDS011;13626;48.128;11.628;2023-04-03T14:37:25;1.30;;;1.20;;
25780;SDS011;13626;48.128;11.628;2023-04-03T14:39:54;1.55;;;1.33;;
25780;SDS011;13626;48.128;11.628;2023-04-03T14:42:23;5.90;;;1.80;;
25780;SDS011;13626;48.128;11.628;2023-04-03T14:44:51;3.13;;;1.70;;
25780;SDS011;13626;48.128;11.628;2023-04-03T14:47:20;3.58;;;2.00;;
25780;SDS011;13626;48.128;11.628;2023-04-03T14:49:57;3.78;;;1.42;;
25780;SDS011;13626;48.128;11.628;2023-04-03T14:52:26;4.28;;;2.17;;
25780;SDS011;13626;48.128;11.628;2023-04-03T14:54:54;2.92;;;1.60;;
25780;SDS011;13626;48.128;11.628;2023-04-03T14:57:23;2.72;;;1.35;;
25780;SDS011;13626;48.128;11.628;2023-04-03T14:59:51;1.55;;;1.45;;
25780;SDS011;13626;48.128;11.628;2023-04-03T15:04:53;5.63;;;1.42;;
25780;SDS011;13626;48.128;11.628;2023-04-03T15:07:20;2.53;;;1.52;;
25780;SDS011;13626;48.128;11.628;2023-04-03T15:09:48;2.63;;;1.50;;
25780;SDS011;13626;48.128;11.628;2023-04-03T15:12:15;4.45;;;1.85;;
25780;SDS011;13626;48.128;11.628;2023-04-03T15:14:42;5.30;;;3.05;;
25780;SDS011;13626;48.128;11.628;2023-04-03T15:17:22;2.80;;;1.42;;
25780;SDS011;13626;48.128;11.628;2023-04-03T15:19:50;2.25;;;1.35;;
25780;SDS011;13626;48.128;11.628;2023-04-03T15:22:18;4.68;;;1.40;;
25780;SDS011;13626;48.128;11.628;2023-04-03T15:24:45;2.67;;;1.33;;
25780;SDS011;13626;48.128;11.628;2023-04-03T15:27:13;8.57;;;2.45;;
25780;SDS011;13626;48.128;11.628;2023-04-03T15:29:42;4.28;;;1.50;;
25780;SDS011;13626;48.128;11.628;2023-04-03T15:32:09;2.22;;;1.40;;
25780;SDS011;13626;48.128;11.628;2023-04-03T15:34:37;1.80;;;1.25;;
25780;SDS011;13626;48.128;11.628;2023-04-03T15:37:04;2.53;;;1.30;;
25780;SDS011;13626;48.128;11.628;2023-04-03T15:39:31;3.33;;;1.42;;
25780;SDS011;13626;48.128;11.628;2023-04-03T15:41:58;2.38;;;1.27;;
25780;SDS011;13626;48.128;11.628;2023-04-03T15:44:33;1.73;;;1.30;;
25780;SDS011;13626;48.128;11.628;2023-04-03T15:47:00;3.97;;;1.60;;
25780;SDS011;13626;48.128;11.628;2023-04-03T15:49:28;1.85;;;1.42;;
25780;SDS011;13626;48.128;11.628;2023-04-03T15:51:55;3.00;;;1.45;;
25780;SDS011;13626;48.128;11.628;2023-04-03T15:54:22;2.67;;;1.40;;
25780;SDS011;13626;48.128;11.628;2023-04-03T15:56:51;3.53;;;1.25;;
25780;SDS011;13626;48.128;11.628;2023-04-03T15:59:18;3.63;;;1.65;;
25780;SDS011;13626;48.128;11.628;2023-04-03T16:01:45;2.03;;;1.60;;
25780;SDS011;13626;48.128;11.628;2023-04-03T16:04:13;2.60;;;1.70;;
25780;SDS011;13626;48.128;11.628;2023-04-03T16:06:41;4.10;;;1.92;;
25780;SDS011;13626;48.128;11.628;2023-04-03T16:09:08;3.72;;;1.50;;
25780;SDS011;13626;48.128;11.628;2023-04-03T16:11:36;4.40;;;1.52;;
25780;SDS011;13626;48.128;11.628;2023-04-03T16:14:06;5.93;;;1.88;;
25780;SDS011;13626;48.128;11.628;2023-04-03T16:16:33;2.70;;;1.58;;
25780;SDS011;13626;48.128;11.628;2023-04-03T16:19:00;5.28;;;1.95;;
25780;SDS011;13626;48.128;11.628;2023-04-03T16:21:28;3.72;;;1.58;;
25780;SDS011;13626;48.128;11.628;2023-04-03T16:23:58;3.00;;;1.40;;
25780;SDS011;13626;48.128;11.628;2023-04-03T16:26:25;3.80;;;1.52;;
25780;SDS011;13626;48.128;11.628;2023-04-03T16:28:53;4.30;;;1.50;;
25780;SDS011;13626;48.128;11.628;2023-04-03T16:31:20;3.15;;;1.95;;
25780;SDS011;13626;48.128;11.628;2023-04-03T16:33:48;2.95;;;1.48;;
25780;SDS011;13626;48.128;11.628;2023-04-03T16:36:15;3.33;;;1.60;;
25780;SDS011;13626;48.128;11.628;2023-04-03T16:38:43;3.10;;;1.85;;
25780;SDS011;13626;48.128;11.628;2023-04-03T16:41:10;4.18;;;2.00;;
25780;SDS011;13626;48.128;11.628;2023-04-03T16:43:37;2.40;;;1.88;;
25780;SDS011;13626;48.128;11.628;2023-04-03T16:46:04;2.88;;;1.70;;
25780;SDS011;13626;48.128;11.628;2023-04-03T16:48:32;1.33;;;1.23;;
25780;SDS011;13626;48.128;11.628;2023-04-03T16:50:59;2.05;;;1.60;;
25780;SDS011;13626;48.128;11.628;2023-04-03T16:53:26;2.80;;;1.70;;
25780;SDS011;13626;48.128;11.628;2023-04-03T16:55:53;4.07;;;1.90;;
25780;SDS011;13626;48.128;11.628;2023-04-03T16:58:21;1.83;;;1.42;;
25780;SDS011;13626;48.128;11.628;2023-04-03T17:00:49;1.92;;;1.52;;
25780;SDS011;13626;48.128;11.628;2023-04-03T17:03:17;3.28;;;1.63;;